Time;durP1;ratioP1;P1;durP2;ratioP2;P2;SDS_P1;SDS_P2;PMS_P1;PMS_P2;Temp;Humidity;BMP_temperature;BMP_pressure;BME280_temperature;BME280_humidity;BME280_pressure;Samples;Min_cycle;Max_cycle;Signal;HPM_P1;HPM_P2
2022/01/05 00:00:47;;;;;;;5.85;3.28;;;;;;;;;;5053570;28;20041;-53
2022/01/05 00:03:13;;;;;;;9.90;4.13;;;;;;;;;;5058900;28;20478;-49
2022/01/05 00:05:39;;;;;;;7.28;3.50;;;;;;;;;;5053155;28;20041;-54
2022/01/05 00:08:04;;;;;;;7.30;3.40;;;;;;;;;;5057590;28;20314;-53
2022/01/05 00:10:30;;;;;;;9.38;3.53;;;;;;;;;;5055416;28;20134;-51
2022/01/05 00:12:56;;;;;;;7.43;3.65;;;;;;;;;;5055393;28;20424;-52
2022/01/05 00:15:22;;;;;;;10.07;3.50;;;;;;;;;;5058063;28;20082;-52
2022/01/05 00:17:48;;;;;;;7.78;4.22;;;;;;;;;;5054238;28;20474;-54
2022/01/05 00:20:13;;;;;;;7.80;3.63;;;;;;;;;;5059860;28;20044;-52
2022/01/05 00:22:39;;;;;;;8.85;3.55;;;;;;;;;;5058996;28;20041;-52
2022/01/05 00:25:06;;;;;;;8.15;3.60;;;;;;;;;;5058619;28;20068;-51
2022/01/05 00:27:32;;;;;;;6.95;3.28;;;;;;;;;;5061292;28;20050;-51
2022/01/05 00:29:58;;;;;;;5.43;3.15;;;;;;;;;;5059166;28;20044;-49
2022/01/05 00:32:24;;;;;;;6.47;3.00;;;;;;;;;;5061135;28;20047;-51
2022/01/05 00:34:50;;;;;;;6.05;2.92;;;;;;;;;;5058751;28;20471;-48
2022/01/05 00:37:16;;;;;;;5.57;2.80;;;;;;;;;;5058054;28;20136;-52
2022/01/05 00:39:41;;;;;;;5.03;2.53;;;;;;;;;;5060618;28;20060;-52
2022/01/05 00:42:08;;;;;;;8.18;3.10;;;;;;;;;;5059069;28;20571;-48
2022/01/05 00:44:33;;;;;;;6.05;3.10;;;;;;;;;;5062331;28;20473;-48
2022/01/05 00:46:59;;;;;;;6.35;3.00;;;;;;;;;;5060333;28;20476;-49
2022/01/05 00:49:25;;;;;;;4.00;3.00;;;;;;;;;;5058488;28;20044;-49
2022/01/05 00:51:51;;;;;;;5.75;2.60;;;;;;;;;;5060638;28;20130;-49
2022/01/05 00:54:16;;;;;;;7.10;3.08;;;;;;;;;;5057958;28;20044;-52
2022/01/05 00:56:42;;;;;;;7.22;2.85;;;;;;;;;;5060515;28;20483;-48
2022/01/05 00:59:08;;;;;;;8.00;3.25;;;;;;;;;;5060486;28;20094;-53
2022/01/05 01:01:34;;;;;;;6.63;3.40;;;;;;;;;;5058046;28;20047;-53
2022/01/05 01:03:59;;;;;;;5.85;2.78;;;;;;;;;;5061916;28;20476;-54
2022/01/05 01:06:25;;;;;;;9.25;3.22;;;;;;;;;;5057062;28;20041;-49
2022/01/05 01:08:51;;;;;;;5.65;3.25;;;;;;;;;;5061239;28;20566;-48
2022/01/05 01:11:16;;;;;;;8.93;3.03;;;;;;;;;;5059820;28;20098;-53
2022/01/05 01:13:43;;;;;;;4.90;3.03;;;;;;;;;;5058605;28;20041;-48
2022/01/05 01:16:09;;;;;;;6.38;2.95;;;;;;;;;;5061490;28;20503;-53
2022/01/05 01:18:35;;;;;;;4.95;2.75;;;;;;;;;;5056441;28;20036;-50
2022/01/05 01:21:01;;;;;;;7.57;2.90;;;;;;;;;;5060110;28;20052;-48
2022/01/05 01:23:27;;;;;;;6.20;2.90;;;;;;;;;;5058199;28;20400;-54
2022/01/05 01:25:53;;;;;;;10.85;3.00;;;;;;;;;;5056900;28;20041;-47
2022/01/05 01:28:20;;;;;;;4.70;2.53;;;;;;;;;;5060790;28;20551;-50
2022/01/05 01:30:45;;;;;;;5.60;2.67;;;;;;;;;;5055481;28;20041;-51
2022/01/05 01:33:11;;;;;;;8.80;3.30;;;;;;;;;;5059520;28;20047;-51
2022/01/05 01:35:37;;;;;;;6.03;3.28;;;;;;;;;;5056605;28;20033;-55
2022/01/05 01:38:03;;;;;;;7.43;3.17;;;;;;;;;;5057526;28;20032;-51
2022/01/05 01:40:29;;;;;;;5.63;2.97;;;;;;;;;;5060135;28;20054;-49
2022/01/05 01:42:55;;;;;;;6.78;2.95;;;;;;;;;;5055771;28;20060;-48
2022/01/05 01:45:21;;;;;;;5.13;2.88;;;;;;;;;;5059217;28;20470;-53
2022/01/05 01:47:46;;;;;;;4.63;3.20;;;;;;;;;;5055595;28;20052;-49
2022/01/05 01:50:13;;;;;;;5.53;2.90;;;;;;;;;;5057176;28;20044;-49
2022/01/05 01:52:39;;;;;;;6.63;2.70;;;;;;;;;;5059131;28;20419;-50
2022/01/05 01:55:05;;;;;;;8.25;3.05;;;;;;;;;;5055555;28;20058;-51
2022/01/05 01:57:35;;;;;;;8.18;2.90;;;;;;;;;;5061670;28;20037;-50
2022/01/05 02:00:01;;;;;;;8.30;2.72;;;;;;;;;;5058996;28;20041;-55
2022/01/05 02:02:27;;;;;;;5.57;2.60;;;;;;;;;;5057189;28;20045;-50
2022/01/05 02:04:53;;;;;;;4.43;2.35;;;;;;;;;;5058578;28;20148;-51
2022/01/05 02:07:19;;;;;;;5.68;2.55;;;;;;;;;;5056655;28;20131;-52
2022/01/05 02:09:44;;;;;;;6.70;2.97;;;;;;;;;;5059320;28;20040;-55
2022/01/05 02:12:10;;;;;;;3.97;2.45;;;;;;;;;;5058664;28;20048;-49
2022/01/05 02:14:36;;;;;;;5.50;2.70;;;;;;;;;;5059553;28;20035;-54
2022/01/05 02:17:07;;;;;;;5.05;2.70;;;;;;;;;;5059903;28;20413;-49
2022/01/05 02:19:33;;;;;;;5.72;2.38;;;;;;;;;;5054465;28;20111;-48
2022/01/05 02:21:59;;;;;;;5.72;2.50;;;;;;;;;;5062060;28;20415;-49
2022/01/05 02:24:25;;;;;;;7.05;2.22;;;;;;;;;;5056522;28;20504;-50
2022/01/05 02:26:50;;;;;;;6.25;2.47;;;;;;;;;;5058023;28;20095;-50
2022/01/05 02:29:16;;;;;;;7.55;2.42;;;;;;;;;;5059393;28;20048;-48
2022/01/05 02:31:42;;;;;;;6.28;2.22;;;;;;;;;;5057176;28;20041;-48
2022/01/05 02:34:07;;;;;;;5.50;2.10;;;;;;;;;;5061062;28;20036;-52
2022/01/05 02:36:33;;;;;;;7.43;1.80;;;;;;;;;;5054924;28;20094;-50
2022/01/05 02:38:59;;;;;;;6.70;1.85;;;;;;;;;;5059316;28;20564;-52
2022/01/05 02:41:25;;;;;;;5.03;1.55;;;;;;;;;;5058836;28;20036;-47
2022/01/05 02:43:51;;;;;;;4.93;2.08;;;;;;;;;;5055049;28;20173;-55
2022/01/05 02:46:22;;;;;;;6.90;1.50;;;;;;;;;;5060863;28;20044;-49
2022/01/05 02:48:51;;;;;;;5.88;1.50;;;;;;;;;;5055431;28;20033;-51
2022/01/05 02:51:16;;;;;;;3.80;1.38;;;;;;;;;;5056324;28;20036;-53
2022/01/05 02:53:42;;;;;;;6.68;1.75;;;;;;;;;;5057748;28;20033;-47
2022/01/05 02:56:08;;;;;;;2.80;1.35;;;;;;;;;;5056266;28;20119;-49
2022/01/05 02:58:34;;;;;;;4.00;1.83;;;;;;;;;;5059314;28;20041;-48
2022/01/05 03:01:00;;;;;;;4.68;1.40;;;;;;;;;;5058012;28;20097;-48
2022/01/05 03:03:26;;;;;;;6.28;1.55;;;;;;;;;;5056070;28;20429;-47
2022/01/05 03:05:52;;;;;;;6.28;1.58;;;;;;;;;;5057339;28;20052;-51
2022/01/05 03:08:18;;;;;;;4.10;1.20;;;;;;;;;;5055199;28;20488;-54
2022/01/05 03:10:43;;;;;;;3.55;0.80;;;;;;;;;;5058107;28;20044;-50
2022/01/05 03:13:09;;;;;;;6.15;1.20;;;;;;;;;;5057610;28;20041;-51
2022/01/05 03:15:35;;;;;;;8.80;1.33;;;;;;;;;;5058083;28;20090;-52
2022/01/05 03:18:03;;;;;;;2.80;1.25;;;;;;;;;;5053986;28;20047;-50
2022/01/05 03:20:30;;;;;;;6.32;1.10;;;;;;;;;;5053904;28;20036;-48
2022/01/05 03:22:56;;;;;;;6.28;0.80;;;;;;;;;;5059280;28;20398;-47
2022/01/05 03:25:21;;;;;;;4.97;1.02;;;;;;;;;;5055636;28;20037;-51
2022/01/05 03:27:49;;;;;;;3.30;0.70;;;;;;;;;;5055712;28;20109;-51
2022/01/05 03:30:18;;;;;;;5.63;0.95;;;;;;;;;;5058518;28;20037;-50
2022/01/05 03:33:08;;;;;;;4.47;0.90;;;;;;;;;;5054094;28;20443;-47
2022/01/05 03:35:37;;;;;;;8.15;1.33;;;;;;;;;;5057360;28;20036;-53
2022/01/05 03:38:03;;;;;;;4.78;0.80;;;;;;;;;;5054866;28;20090;-51
2022/01/05 03:40:30;;;;;;;2.22;0.75;;;;;;;;;;5057445;28;20504;-49
2022/01/05 03:42:56;;;;;;;4.47;0.63;;;;;;;;;;5056592;28;20147;-46
2022/01/05 03:45:22;;;;;;;2.55;0.70;;;;;;;;;;5055024;28;20127;-47
2022/01/05 03:47:47;;;;;;;6.55;0.77;;;;;;;;;;5057938;28;20476;-52
2022/01/05 03:50:13;;;;;;;4.78;0.80;;;;;;;;;;5055966;28;20053;-52
2022/01/05 03:52:39;;;;;;;6.75;0.80;;;;;;;;;;5057171;28;20090;-49
2022/01/05 03:55:06;;;;;;;2.50;0.52;;;;;;;;;;5059779;28;20091;-51
2022/01/05 03:57:35;;;;;;;3.10;0.65;;;;;;;;;;5059416;28;20043;-51
2022/01/05 04:00:01;;;;;;;4.75;0.82;;;;;;;;;;5062993;28;20115;-48
2022/01/05 04:02:27;;;;;;;5.53;0.85;;;;;;;;;;5058287;28;20033;-50
2022/01/05 04:04:52;;;;;;;2.25;0.63;;;;;;;;;;5062738;28;20045;-49
2022/01/05 04:07:18;;;;;;;4.35;0.80;;;;;;;;;;5060368;28;20048;-49
2022/01/05 04:09:45;;;;;;;5.07;0.80;;;;;;;;;;5059896;28;20044;-45
2022/01/05 04:12:11;;;;;;;6.68;0.70;;;;;;;;;;5057867;28;20045;-47
2022/01/05 04:14:37;;;;;;;6.35;0.88;;;;;;;;;;5058998;28;20503;-48
2022/01/05 04:17:02;;;;;;;6.03;0.93;;;;;;;;;;5064533;28;20124;-47
2022/01/05 04:19:28;;;;;;;6.72;0.95;;;;;;;;;;5058646;28;20037;-47
2022/01/05 04:21:54;;;;;;;2.15;0.68;;;;;;;;;;5061407;28;20041;-48
2022/01/05 04:24:19;;;;;;;7.05;0.90;;;;;;;;;;5061921;28;20482;-46
2022/01/05 04:26:45;;;;;;;6.35;0.88;;;;;;;;;;5058045;28;20858;-58
2022/01/05 04:29:11;;;;;;;3.20;1.10;;;;;;;;;;5060622;28;20048;-47
2022/01/05 04:31:37;;;;;;;5.55;1.33;;;;;;;;;;5053524;28;20037;-52
2022/01/05 04:34:03;;;;;;;2.63;0.70;;;;;;;;;;5058461;28;20124;-51
2022/01/05 04:36:29;;;;;;;9.20;1.05;;;;;;;;;;5057231;28;20698;-47
2022/01/05 04:38:54;;;;;;;5.88;0.75;;;;;;;;;;5058485;28;20484;-48
2022/01/05 04:41:20;;;;;;;3.42;1.30;;;;;;;;;;5059814;28;20040;-52
2022/01/05 04:43:46;;;;;;;6.57;0.80;;;;;;;;;;5057049;28;20033;-50
2022/01/05 04:46:11;;;;;;;10.52;1.25;;;;;;;;;;5057374;28;20033;-51
2022/01/05 04:48:37;;;;;;;6.93;2.00;;;;;;;;;;5059938;28;20044;-54
2022/01/05 04:51:03;;;;;;;5.65;0.88;;;;;;;;;;5059679;28;20036;-47
2022/01/05 04:53:29;;;;;;;4.38;1.08;;;;;;;;;;5059718;28;20495;-51
2022/01/05 04:55:55;;;;;;;6.90;0.60;;;;;;;;;;5058407;28;20056;-48
2022/01/05 04:58:21;;;;;;;7.07;0.80;;;;;;;;;;5057674;28;20110;-53
2022/01/05 05:00:46;;;;;;;3.67;1.17;;;;;;;;;;5060761;28;20389;-47
2022/01/05 05:03:12;;;;;;;8.57;1.00;;;;;;;;;;5058652;28;20041;-51
2022/01/05 05:05:38;;;;;;;4.57;1.67;;;;;;;;;;5059499;28;20064;-52
2022/01/05 05:08:04;;;;;;;5.25;1.13;;;;;;;;;;5060033;28;20032;-52
2022/01/05 05:10:30;;;;;;;6.85;0.80;;;;;;;;;;5057483;28;20446;-50
2022/01/05 05:12:55;;;;;;;4.53;0.70;;;;;;;;;;5060146;28;20236;-50
2022/01/05 05:15:21;;;;;;;6.10;0.93;;;;;;;;;;5055101;28;20511;-50
2022/01/05 05:17:48;;;;;;;9.32;0.85;;;;;;;;;;5059083;28;20114;-51
2022/01/05 05:20:14;;;;;;;4.00;0.90;;;;;;;;;;5059376;28;20427;-51
2022/01/05 05:22:39;;;;;;;5.20;1.02;;;;;;;;;;5057762;28;20043;-49
2022/01/05 05:25:05;;;;;;;6.72;1.20;;;;;;;;;;5060734;28;20090;-45
2022/01/05 05:27:31;;;;;;;5.35;0.70;;;;;;;;;;5056148;28;20047;-49
2022/01/05 05:29:57;;;;;;;3.50;0.50;;;;;;;;;;5061969;28;20037;-46
2022/01/05 05:32:22;;;;;;;11.55;1.52;;;;;;;;;;5058038;28;20041;-49
2022/01/05 05:34:48;;;;;;;4.70;0.60;;;;;;;;;;5058919;28;20040;-51
2022/01/05 05:37:16;;;;;;;8.45;1.10;;;;;;;;;;5060757;28;20380;-50
2022/01/05 05:39:42;;;;;;;7.72;1.30;;;;;;;;;;5055084;28;20812;-51
2022/01/05 05:42:08;;;;;;;2.88;1.00;;;;;;;;;;5061209;28;20048;-55
2022/01/05 05:44:34;;;;;;;8.20;0.80;;;;;;;;;;5055872;28;20033;-51
2022/01/05 05:47:00;;;;;;;3.58;0.70;;;;;;;;;;5059987;28;20052;-51
2022/01/05 05:49:25;;;;;;;6.88;0.77;;;;;;;;;;5059119;28;20067;-57
2022/01/05 05:51:51;;;;;;;4.47;0.82;;;;;;;;;;5056573;28;20087;-54
2022/01/05 05:54:17;;;;;;;5.05;0.98;;;;;;;;;;5061338;28;20048;-56
2022/01/05 05:56:43;;;;;;;2.97;0.60;;;;;;;;;;5055894;28;20396;-49
2022/01/05 05:59:08;;;;;;;5.20;1.02;;;;;;;;;;5057226;28;20163;-50
2022/01/05 06:01:34;;;;;;;7.57;0.77;;;;;;;;;;5058021;28;20032;-49
2022/01/05 06:04:00;;;;;;;4.35;0.60;;;;;;;;;;5058000;28;20500;-53
2022/01/05 06:06:25;;;;;;;3.47;0.88;;;;;;;;;;5058310;28;20037;-55
2022/01/05 06:08:51;;;;;;;8.18;1.00;;;;;;;;;;5056384;28;20167;-53
2022/01/05 06:11:17;;;;;;;4.50;0.73;;;;;;;;;;5056896;28;20094;-56
2022/01/05 06:13:42;;;;;;;3.75;0.90;;;;;;;;;;5058565;28;20072;-53
2022/01/05 06:16:08;;;;;;;4.72;0.82;;;;;;;;;;5057287;28;20316;-55
2022/01/05 06:18:34;;;;;;;5.93;1.00;;;;;;;;;;5059277;28;20139;-49
2022/01/05 06:21:00;;;;;;;3.95;1.02;;;;;;;;;;5058424;28;20094;-53
2022/01/05 06:23:25;;;;;;;2.63;0.70;;;;;;;;;;5056182;28;20094;-56
2022/01/05 06:25:51;;;;;;;4.95;0.90;;;;;;;;;;5058006;28;20083;-56
2022/01/05 06:28:17;;;;;;;7.25;1.15;;;;;;;;;;5055917;28;20098;-55
2022/01/05 06:30:43;;;;;;;5.15;1.00;;;;;;;;;;5058699;28;20048;-54
2022/01/05 06:33:08;;;;;;;6.22;1.27;;;;;;;;;;5058089;28;20037;-55
2022/01/05 06:35:34;;;;;;;4.10;1.30;;;;;;;;;;5058589;28;20090;-52
2022/01/05 06:38:01;;;;;;;3.72;0.80;;;;;;;;;;5059488;28;20094;-57
2022/01/05 06:40:27;;;;;;;5.65;1.10;;;;;;;;;;5054606;28;20071;-54
2022/01/05 06:42:53;;;;;;;9.07;0.93;;;;;;;;;;5059811;28;20032;-54
2022/01/05 06:45:18;;;;;;;3.50;0.98;;;;;;;;;;5056324;28;20500;-54
2022/01/05 06:47:44;;;;;;;5.90;1.50;;;;;;;;;;5056421;28;20040;-53
2022/01/05 06:50:11;;;;;;;5.53;1.10;;;;;;;;;;5059225;28;20508;-55
2022/01/05 06:52:38;;;;;;;5.68;1.60;;;;;;;;;;5055726;28;20037;-51
2022/01/05 06:55:04;;;;;;;6.82;0.90;;;;;;;;;;5060385;28;20172;-52
2022/01/05 06:57:30;;;;;;;4.03;0.80;;;;;;;;;;5055614;28;20037;-52
2022/01/05 06:59:56;;;;;;;5.88;1.00;;;;;;;;;;5058224;28;20538;-49
2022/01/05 07:02:22;;;;;;;3.63;1.10;;;;;;;;;;5058423;28;20076;-52
2022/01/05 07:04:48;;;;;;;5.00;0.90;;;;;;;;;;5054059;28;20131;-51
2022/01/05 07:07:13;;;;;;;5.28;1.13;;;;;;;;;;5060383;28;20067;-53
2022/01/05 07:09:39;;;;;;;4.93;1.00;;;;;;;;;;5054442;28;20049;-54
2022/01/05 07:12:05;;;;;;;7.70;0.82;;;;;;;;;;5059331;28;20041;-53
2022/01/05 07:14:31;;;;;;;6.03;1.33;;;;;;;;;;5057358;28;20041;-51
2022/01/05 07:16:57;;;;;;;4.57;1.00;;;;;;;;;;5055263;28;20036;-52
2022/01/05 07:19:23;;;;;;;3.58;1.25;;;;;;;;;;5057906;28;20045;-51
2022/01/05 07:21:48;;;;;;;5.10;1.00;;;;;;;;;;5054731;28;20542;-54
2022/01/05 07:24:17;;;;;;;4.90;1.13;;;;;;;;;;5058524;28;20094;-53
2022/01/05 07:26:44;;;;;;;4.60;1.45;;;;;;;;;;5056566;28;20408;-55
2022/01/05 07:29:10;;;;;;;4.53;1.30;;;;;;;;;;5054713;28;20044;-56
2022/01/05 07:31:36;;;;;;;7.15;1.52;;;;;;;;;;5056334;28;20051;-54
2022/01/05 07:34:02;;;;;;;4.18;1.33;;;;;;;;;;5051789;28;20040;-53
2022/01/05 07:36:27;;;;;;;10.18;1.38;;;;;;;;;;5054948;28;20068;-56
2022/01/05 07:38:53;;;;;;;5.72;1.35;;;;;;;;;;5056870;28;20068;-55
2022/01/05 07:41:19;;;;;;;12.10;1.50;;;;;;;;;;5054859;28;20486;-52
2022/01/05 07:43:44;;;;;;;6.88;1.58;;;;;;;;;;5057548;28;20037;-56
2022/01/05 07:46:10;;;;;;;6.43;1.75;;;;;;;;;;5056818;28;20048;-56
2022/01/05 07:48:36;;;;;;;8.52;2.00;;;;;;;;;;5054291;28;20032;-52
2022/01/05 07:51:02;;;;;;;7.43;1.40;;;;;;;;;;5054386;28;20048;-55
2022/01/05 07:53:28;;;;;;;4.15;1.50;;;;;;;;;;5053571;28;20839;-53
2022/01/05 07:55:53;;;;;;;6.93;1.83;;;;;;;;;;5056832;28;20106;-55
2022/01/05 07:58:21;;;;;;;9.52;2.00;;;;;;;;;;5055414;28;20051;-51
2022/01/05 08:00:47;;;;;;;5.38;2.25;;;;;;;;;;5055361;28;20141;-53
2022/01/05 08:03:13;;;;;;;8.13;2.03;;;;;;;;;;5057346;28;20107;-51
2022/01/05 08:05:38;;;;;;;9.57;1.95;;;;;;;;;;5052079;28;20045;-47
2022/01/05 08:08:04;;;;;;;7.82;1.35;;;;;;;;;;5052586;28;20036;-53
2022/01/05 08:10:30;;;;;;;4.10;1.15;;;;;;;;;;5054384;28;20662;-56
2022/01/05 08:12:55;;;;;;;6.35;1.88;;;;;;;;;;5057095;28;20041;-48
2022/01/05 08:15:21;;;;;;;12.40;1.55;;;;;;;;;;5056234;28;20033;-53
2022/01/05 08:17:47;;;;;;;8.52;1.55;;;;;;;;;;5052935;28;20127;-54
2022/01/05 08:20:14;;;;;;;6.38;1.85;;;;;;;;;;5058888;28;20102;-51
2022/01/05 08:22:41;;;;;;;13.40;1.52;;;;;;;;;;5053635;28;20328;-52
2022/01/05 08:25:09;;;;;;;5.60;1.90;;;;;;;;;;5057556;28;20115;-54
2022/01/05 08:27:34;;;;;;;8.95;2.45;;;;;;;;;;5055640;28;20044;-50
2022/01/05 08:30:04;;;;;;;5.47;1.70;;;;;;;;;;5055667;28;20116;-54
2022/01/05 08:32:30;;;;;;;9.50;1.70;;;;;;;;;;5055540;28;20044;-54
2022/01/05 08:34:56;;;;;;;5.47;1.17;;;;;;;;;;5054771;28;20493;-54
2022/01/05 08:37:22;;;;;;;10.45;1.77;;;;;;;;;;5057806;28;20067;-56
2022/01/05 08:39:50;;;;;;;10.23;2.03;;;;;;;;;;5055652;28;20417;-51
2022/01/05 08:42:16;;;;;;;10.15;2.40;;;;;;;;;;5059322;28;20128;-56
2022/01/05 08:44:41;;;;;;;6.63;1.83;;;;;;;;;;5061192;28;20060;-54
2022/01/05 08:47:08;;;;;;;6.35;1.88;;;;;;;;;;5059526;28;20036;-52
2022/01/05 08:49:34;;;;;;;5.15;1.60;;;;;;;;;;5060808;28;20496;-54
2022/01/05 08:52:00;;;;;;;7.43;1.80;;;;;;;;;;5060751;28;20220;-56
2022/01/05 08:54:26;;;;;;;11.40;2.00;;;;;;;;;;5057576;28;20119;-57
2022/01/05 08:56:54;;;;;;;7.07;1.70;;;;;;;;;;5060442;28;20033;-54
2022/01/05 08:59:20;;;;;;;8.23;1.80;;;;;;;;;;5058369;28;20445;-57
2022/01/05 09:01:45;;;;;;;8.93;2.78;;;;;;;;;;5061187;28;20499;-55
2022/01/05 09:04:11;;;;;;;5.80;1.45;;;;;;;;;;5060457;28;20141;-55
2022/01/05 09:06:37;;;;;;;10.85;1.90;;;;;;;;;;5057953;28;20442;-52
2022/01/05 09:09:03;;;;;;;8.70;2.25;;;;;;;;;;5062394;28;20094;-56
2022/01/05 09:11:29;;;;;;;6.25;1.98;;;;;;;;;;5057808;28;20044;-55
2022/01/05 09:13:54;;;;;;;8.20;1.83;;;;;;;;;;5059521;28;20747;-56
2022/01/05 09:16:20;;;;;;;7.65;1.95;;;;;;;;;;5059090;28;20114;-53
2022/01/05 09:18:46;;;;;;;8.93;2.40;;;;;;;;;;5056245;28;20044;-55
2022/01/05 09:21:12;;;;;;;6.85;2.58;;;;;;;;;;5061990;28;20040;-53
2022/01/05 09:23:38;;;;;;;9.75;2.67;;;;;;;;;;5056385;28;20523;-48
2022/01/05 09:26:04;;;;;;;12.15;3.20;;;;;;;;;;5061014;28;20376;-49
2022/01/05 09:28:29;;;;;;;7.97;2.28;;;;;;;;;;5058547;28;20095;-52
2022/01/05 09:30:55;;;;;;;7.88;2.10;;;;;;;;;;5057337;28;20045;-50
2022/01/05 09:33:24;;;;;;;7.25;1.73;;;;;;;;;;5062174;28;20500;-50
2022/01/05 09:36:00;;;;;;;5.25;2.08;;;;;;;;;;5057072;28;20045;-50
2022/01/05 09:44:03;;;;;;;8.98;2.45;;;;;;;;;;5059464;28;20167;-51
2022/01/05 09:46:44;;;;;;;7.80;2.53;;;;;;;;;;5056412;28;20037;-54
2022/01/05 09:49:18;;;;;;;7.00;3.00;;;;;;;;;;5053065;28;20052;-57
2022/01/05 09:51:44;;;;;;;5.93;2.80;;;;;;;;;;5058281;28;20547;-52
2022/01/05 09:54:12;;;;;;;8.63;3.33;;;;;;;;;;5056840;28;20049;-52
2022/01/05 09:56:38;;;;;;;8.57;2.33;;;;;;;;;;5062394;28;20033;-52
2022/01/05 09:59:04;;;;;;;6.43;3.05;;;;;;;;;;5060127;28;20041;-56
2022/01/05 10:01:35;;;;;;;8.60;2.42;;;;;;;;;;5057177;28;20033;-52
2022/01/05 10:04:01;;;;;;;9.13;2.65;;;;;;;;;;5057904;28;20036;-52
2022/01/05 10:06:27;;;;;;;8.55;2.33;;;;;;;;;;5055549;28;20507;-57
2022/01/05 10:08:53;;;;;;;7.20;2.40;;;;;;;;;;5060673;28;20390;-49
2022/01/05 10:11:22;;;;;;;7.68;2.10;;;;;;;;;;5055108;28;20121;-51
2022/01/05 10:13:48;;;;;;;5.10;1.52;;;;;;;;;;5058012;28;20047;-54
2022/01/05 10:16:14;;;;;;;5.15;1.42;;;;;;;;;;5059973;28;20040;-53
2022/01/05 10:18:42;;;;;;;6.82;1.33;;;;;;;;;;5054724;28;20485;-49
2022/01/05 10:21:07;;;;;;;7.78;2.25;;;;;;;;;;5057858;28;20090;-54
2022/01/05 10:23:42;;;;;;;7.10;1.48;;;;;;;;;;5056703;28;20064;-58
2022/01/05 10:26:30;;;;;;;7.43;2.08;;;;;;;;;;5056159;28;20132;-53
2022/01/05 10:29:07;;;;;;;9.52;1.60;;;;;;;;;;5058701;28;20484;-51
2022/01/05 10:31:36;;;;;;;4.90;1.42;;;;;;;;;;5056868;28;20470;-49
2022/01/05 10:34:16;;;;;;;8.57;1.52;;;;;;;;;;5060752;28;20037;-55
2022/01/05 10:36:50;;;;;;;7.07;1.80;;;;;;;;;;5054531;28;20079;-54
2022/01/05 10:39:20;;;;;;;10.07;1.77;;;;;;;;;;5058197;28;20298;-51
2022/01/05 10:41:46;;;;;;;9.52;1.63;;;;;;;;;;5056082;28;20037;-53
2022/01/05 10:44:20;;;;;;;6.28;1.40;;;;;;;;;;5057095;28;20127;-53
2022/01/05 10:46:53;;;;;;;4.47;1.10;;;;;;;;;;5053174;28;20041;-54
2022/01/05 10:49:30;;;;;;;12.32;2.00;;;;;;;;;;5055688;28;20036;-55
2022/01/05 10:52:13;;;;;;;7.25;2.17;;;;;;;;;;5059616;28;20049;-51
2022/01/05 10:54:39;;;;;;;4.70;1.52;;;;;;;;;;5044815;28;20037;-53
2022/01/05 10:57:10;;;;;;;7.57;1.67;;;;;;;;;;5054018;28;20758;-55
2022/01/05 10:59:38;;;;;;;6.72;1.55;;;;;;;;;;5055198;28;20051;-53
2022/01/05 11:02:21;;;;;;;4.78;1.80;;;;;;;;;;5069578;28;20055;-52
2022/01/05 11:04:47;;;;;;;7.22;1.73;;;;;;;;;;5056452;28;20056;-50
2022/01/05 11:07:19;;;;;;;5.38;1.42;;;;;;;;;;5051930;28;20118;-52
2022/01/05 11:10:05;;;;;;;6.78;1.60;;;;;;;;;;5057754;28;20056;-53
2022/01/05 11:12:37;;;;;;;7.88;1.50;;;;;;;;;;5046551;28;20049;-53
2022/01/05 11:15:32;;;;;;;8.18;1.65;;;;;;;;;;5054466;28;20105;-55
2022/01/05 11:18:21;;;;;;;6.88;1.70;;;;;;;;;;5057108;28;20410;-54
2022/01/05 11:21:01;;;;;;;9.23;2.72;;;;;;;;;;5049381;28;20102;-48
2022/01/05 11:23:30;;;;;;;5.65;1.75;;;;;;;;;;5052924;28;20036;-51
2022/01/05 11:25:58;;;;;;;5.75;1.55;;;;;;;;;;5054714;28;20492;-51
2022/01/05 11:28:25;;;;;;;9.68;2.40;;;;;;;;;;5059389;28;20045;-54
2022/01/05 11:30:52;;;;;;;9.32;1.92;;;;;;;;;;5055300;28;20036;-52
2022/01/05 11:33:19;;;;;;;8.57;2.35;;;;;;;;;;5058027;28;20070;-55
2022/01/05 11:35:45;;;;;;;7.80;1.38;;;;;;;;;;5055735;28;20457;-48
2022/01/05 11:38:11;;;;;;;6.85;2.03;;;;;;;;;;5055591;28;20040;-51
2022/01/05 11:40:39;;;;;;;6.15;2.10;;;;;;;;;;5056431;28;20043;-55
2022/01/05 11:43:21;;;;;;;6.68;2.05;;;;;;;;;;5055263;28;20083;-55
2022/01/05 11:45:49;;;;;;;6.72;1.63;;;;;;;;;;5056495;28;20048;-56
2022/01/05 11:48:22;;;;;;;9.85;2.65;;;;;;;;;;5055474;28;20044;-48
2022/01/05 11:50:59;;;;;;;4.53;0.88;;;;;;;;;;5056718;28;20040;-51
2022/01/05 11:53:40;;;;;;;5.30;2.42;;;;;;;;;;5054906;28;20136;-54
2022/01/05 11:56:16;;;;;;;4.03;1.50;;;;;;;;;;5054899;28;20060;-53
2022/01/05 11:58:59;;;;;;;3.92;1.98;;;;;;;;;;5057679;28;20617;-52
2022/01/05 12:01:31;;;;;;;6.57;1.52;;;;;;;;;;5052591;28;20522;-56
2022/01/05 12:04:01;;;;;;;5.50;1.30;;;;;;;;;;5062158;28;20078;-52
2022/01/05 12:06:31;;;;;;;9.05;2.08;;;;;;;;;;5055259;28;20044;-52
2022/01/05 12:08:59;;;;;;;5.78;1.25;;;;;;;;;;5057585;28;20472;-51
2022/01/05 12:11:42;;;;;;;3.70;1.70;;;;;;;;;;5055743;28;20571;-48
2022/01/05 12:14:27;;;;;;;8.52;2.17;;;;;;;;;;5054064;28;20131;-48
2022/01/05 12:16:56;;;;;;;6.55;1.67;;;;;;;;;;5061767;28;20403;-48
2022/01/05 12:19:22;;;;;;;5.45;1.63;;;;;;;;;;5059266;28;20045;-53
2022/01/05 12:21:52;;;;;;;6.88;1.90;;;;;;;;;;5059326;28;20040;-49
2022/01/05 12:24:19;;;;;;;7.00;1.67;;;;;;;;;;5058856;28;20040;-52
2022/01/05 12:26:45;;;;;;;4.72;1.38;;;;;;;;;;5056160;28;20415;-50
2022/01/05 12:29:11;;;;;;;6.88;1.98;;;;;;;;;;5062842;28;20113;-51
2022/01/05 12:31:55;;;;;;;9.25;2.13;;;;;;;;;;5058331;28;20142;-51
2022/01/05 12:34:50;;;;;;;5.53;2.08;;;;;;;;;;5062473;28;20036;-53
2022/01/05 12:37:39;;;;;;;6.53;1.83;;;;;;;;;;5059348;28;20120;-48
2022/01/05 12:40:28;;;;;;;7.40;2.42;;;;;;;;;;5061201;28;20117;-52
2022/01/05 12:43:09;;;;;;;7.57;1.95;;;;;;;;;;5059204;28;20048;-52
2022/01/05 12:45:43;;;;;;;8.23;1.88;;;;;;;;;;5057858;28;20119;-48
2022/01/05 12:48:31;;;;;;;11.32;2.38;;;;;;;;;;5059738;28;20044;-49
2022/01/05 12:51:12;;;;;;;6.80;2.10;;;;;;;;;;5058157;28;20097;-49
2022/01/05 12:54:01;;;;;;;6.55;1.85;;;;;;;;;;5059210;28;20060;-50
2022/01/05 12:56:30;;;;;;;5.90;2.15;;;;;;;;;;5055282;28;20036;-52
2022/01/05 12:58:57;;;;;;;6.53;2.20;;;;;;;;;;5062384;28;20175;-49
2022/01/05 13:01:25;;;;;;;7.88;2.20;;;;;;;;;;5058566;28;20494;-51
2022/01/05 13:03:52;;;;;;;5.00;1.98;;;;;;;;;;5059462;28;20318;-49
2022/01/05 13:06:29;;;;;;;6.35;2.50;;;;;;;;;;5060929;28;20121;-49
2022/01/05 13:08:59;;;;;;;11.80;2.60;;;;;;;;;;5055856;28;20507;-48
2022/01/05 13:11:42;;;;;;;5.30;1.63;;;;;;;;;;5062197;28;20048;-48
2022/01/05 13:14:13;;;;;;;9.70;2.35;;;;;;;;;;5057697;28;20058;-50
2022/01/05 13:16:39;;;;;;;5.30;1.88;;;;;;;;;;5057477;28;20132;-46
2022/01/05 13:19:10;;;;;;;5.05;1.77;;;;;;;;;;5060111;28;20395;-53
2022/01/05 13:21:47;;;;;;;8.43;1.75;;;;;;;;;;5057499;28;20492;-47
2022/01/05 13:24:12;;;;;;;7.07;1.80;;;;;;;;;;5055415;28;20605;-50
2022/01/05 13:27:04;;;;;;;8.52;2.05;;;;;;;;;;5055697;28;20037;-50
2022/01/05 13:29:30;;;;;;;7.20;1.92;;;;;;;;;;5057878;28;20121;-49
2022/01/05 13:32:01;;;;;;;3.75;2.00;;;;;;;;;;5057046;28;20037;-51
2022/01/05 13:34:41;;;;;;;11.93;2.33;;;;;;;;;;5055856;28;20041;-48
2022/01/05 13:37:07;;;;;;;8.65;2.78;;;;;;;;;;5053672;28;20475;-49
2022/01/05 13:39:47;;;;;;;5.63;1.23;;;;;;;;;;5056120;28;20448;-50
2022/01/05 13:42:19;;;;;;;4.03;1.40;;;;;;;;;;5053516;28;20048;-49
2022/01/05 13:44:48;;;;;;;11.85;2.58;;;;;;;;;;5054661;28;20063;-50
2022/01/05 13:47:18;;;;;;;4.53;1.73;;;;;;;;;;5054226;28;20479;-54
2022/01/05 13:50:04;;;;;;;10.02;3.40;;;;;;;;;;5051925;28;20047;-45
2022/01/05 13:52:30;;;;;;;3.63;1.33;;;;;;;;;;5052242;28;20526;-46
2022/01/05 13:54:56;;;;;;;5.95;1.92;;;;;;;;;;5055507;28;20045;-55
2022/01/05 13:57:28;;;;;;;9.20;2.42;;;;;;;;;;5054703;28;20045;-48
2022/01/05 13:59:59;;;;;;;6.22;1.75;;;;;;;;;;5056287;28;20046;-51
2022/01/05 14:02:26;;;;;;;7.72;1.75;;;;;;;;;;5055088;28;20030;-52
2022/01/05 14:04:55;;;;;;;7.90;3.13;;;;;;;;;;5051911;28;20665;-48
2022/01/05 14:07:24;;;;;;;6.88;2.08;;;;;;;;;;5053188;28;20071;-49
2022/01/05 14:10:08;;;;;;;9.20;2.55;;;;;;;;;;5051785;28;20071;-48
2022/01/05 14:12:36;;;;;;;4.65;1.50;;;;;;;;;;5052992;28;20029;-46
2022/01/05 14:15:04;;;;;;;6.47;1.75;;;;;;;;;;5050681;28;20125;-50
2022/01/05 14:17:31;;;;;;;8.15;1.90;;;;;;;;;;5050128;28;20408;-46
2022/01/05 14:20:14;;;;;;;8.43;1.58;;;;;;;;;;5052007;28;20055;-50
2022/01/05 14:22:40;;;;;;;7.82;2.22;;;;;;;;;;5049699;28;20343;-47
2022/01/05 14:25:07;;;;;;;10.18;1.73;;;;;;;;;;5049470;28;20099;-49
2022/01/05 14:27:37;;;;;;;4.13;1.40;;;;;;;;;;5045841;28;20116;-45
2022/01/05 14:30:06;;;;;;;10.55;2.05;;;;;;;;;;5052214;28;20045;-52
2022/01/05 14:32:33;;;;;;;3.97;1.33;;;;;;;;;;5050998;28;20156;-49
2022/01/05 14:35:00;;;;;;;7.10;1.25;;;;;;;;;;5051991;28;20044;-53
2022/01/05 14:37:26;;;;;;;2.83;1.15;;;;;;;;;;5049354;28;20055;-51
2022/01/05 14:39:54;;;;;;;4.05;1.33;;;;;;;;;;5054184;28;20033;-47
2022/01/05 14:42:20;;;;;;;6.18;1.52;;;;;;;;;;5052166;28;20040;-49
2022/01/05 14:44:48;;;;;;;4.20;1.83;;;;;;;;;;5051214;28;20098;-49
2022/01/05 14:47:21;;;;;;;8.02;1.63;;;;;;;;;;5050903;28;20055;-49
2022/01/05 14:49:47;;;;;;;6.95;1.80;;;;;;;;;;5050939;28;20490;-49
2022/01/05 14:52:13;;;;;;;6.03;2.05;;;;;;;;;;5052643;28;20057;-48
2022/01/05 14:54:39;;;;;;;6.25;1.50;;;;;;;;;;5051554;28;20048;-53